Weather at Fudpucker International Seaplane Base [CLOSED]

Public forecast

Using degrees Fahrenheit for public forecast. Weather courtesy of forecast.io.

Closest aviation weather report (METAR) to Fudpucker International Seaplane Base

Closest report is Flying Cloud Airport, 7.3 nm (13.4 km) SE.

2023/09/29 15:53 (retrieved 14 minutes ago)

KFCM 291553Z 12010KT 2 1/2SM -RA BR FEW012 OVC095 17/15 A2997 RMK AO2 LTG DSNT NE AND E TSE20 SLP148 P0002 T01670150

Closest aviation forecast (TAF) to Fudpucker International Seaplane Base

Closest forecast is Minneapolis–Saint Paul International Airport / Wold–Chamberlain Field, 15.5 nm (28.6 km) E.

2023/09/29 15:39 Ammendment (retrieved 28 minutes ago)

TAF AMD KMSP 291437Z 2915/3018 14011KT P6SM VCTS OVC080CB TEMPO 2915/2916 5SM -TSRA BKN050CB FM291600 15009KT P6SM BKN100 FM291700 15010G22KT P6SM FEW120 FM292200 15011G21KT P6SM SCT240 FM300300 14012KT P6SM BKN080 WS020/19040KT PROB30 3004/3008 3SM -TSRA BR BKN050CB FM300800 13007KT P6SM -SHRA BKN150 FM301500 18009KT P6SM BKN110